sensor_id;sensor_type;location;lat;lon;timestamp;temperature;humidity
10149;DHT22;5115;50.920;6.376;2023-09-08T00:00:50;22.20;99.90
10149;DHT22;5115;50.920;6.376;2023-09-08T00:03:15;22.10;99.90
10149;DHT22;5115;50.920;6.376;2023-09-08T00:05:41;22.10;99.90
10149;DHT22;5115;50.920;6.376;2023-09-08T00:08:07;22.10;99.90
10149;DHT22;5115;50.920;6.376;2023-09-08T00:10:33;22.00;99.90
10149;DHT22;5115;50.920;6.376;2023-09-08T00:12:58;22.00;99.90
10149;DHT22;5115;50.920;6.376;2023-09-08T00:15:24;21.90;99.90
10149;DHT22;5115;50.920;6.376;2023-09-08T00:17:49;21.90;99.90
10149;DHT22;5115;50.920;6.376;2023-09-08T00:20:15;21.90;99.90
10149;DHT22;5115;50.920;6.376;2023-09-08T00:22:40;21.80;99.90
10149;DHT22;5115;50.920;6.376;2023-09-08T00:25:06;21.90;99.90
10149;DHT22;5115;50.920;6.376;2023-09-08T00:27:32;21.80;99.90
10149;DHT22;5115;50.920;6.376;2023-09-08T00:29:58;21.80;99.90
10149;DHT22;5115;50.920;6.376;2023-09-08T00:32:24;21.80;99.90
10149;DHT22;5115;50.920;6.376;2023-09-08T00:34:49;21.80;99.90
10149;DHT22;5115;50.920;6.376;2023-09-08T00:37:15;21.80;99.90
10149;DHT22;5115;50.920;6.376;2023-09-08T00:39:40;21.80;99.90
10149;DHT22;5115;50.920;6.376;2023-09-08T00:42:06;21.70;99.90
10149;DHT22;5115;50.920;6.376;2023-09-08T00:44:33;21.70;99.90
10149;DHT22;5115;50.920;6.376;2023-09-08T00:46:59;21.70;99.90
10149;DHT22;5115;50.920;6.376;2023-09-08T00:49:24;21.70;99.90
10149;DHT22;5115;50.920;6.376;2023-09-08T00:51:51;21.70;99.90
10149;DHT22;5115;50.920;6.376;2023-09-08T00:54:17;21.70;99.90
10149;DHT22;5115;50.920;6.376;2023-09-08T00:56:44;21.70;99.90
10149;DHT22;5115;50.920;6.376;2023-09-08T00:59:11;21.60;99.90
10149;DHT22;5115;50.920;6.376;2023-09-08T01:01:37;21.60;99.90
10149;DHT22;5115;50.920;6.376;2023-09-08T01:04:03;21.60;99.90
10149;DHT22;5115;50.920;6.376;2023-09-08T01:06:29;21.60;99.90
10149;DHT22;5115;50.920;6.376;2023-09-08T01:08:56;21.70;99.90
10149;DHT22;5115;50.920;6.376;2023-09-08T01:11:21;21.70;99.90
10149;DHT22;5115;50.920;6.376;2023-09-08T01:13:47;21.70;99.90
10149;DHT22;5115;50.920;6.376;2023-09-08T01:16:13;21.70;99.90
10149;DHT22;5115;50.920;6.376;2023-09-08T01:18:39;21.70;99.90
10149;DHT22;5115;50.920;6.376;2023-09-08T01:21:18;21.70;99.90
10149;DHT22;5115;50.920;6.376;2023-09-08T01:23:57;21.70;99.90
10149;DHT22;5115;50.920;6.376;2023-09-08T01:26:27;21.60;99.90
10149;DHT22;5115;50.920;6.376;2023-09-08T01:28:56;21.60;99.90
10149;DHT22;5115;50.920;6.376;2023-09-08T01:31:22;21.60;99.90
10149;DHT22;5115;50.920;6.376;2023-09-08T01:33:48;21.60;99.90
10149;DHT22;5115;50.920;6.376;2023-09-08T01:36:14;21.60;99.90
10149;DHT22;5115;50.920;6.376;2023-09-08T01:38:39;21.60;99.90
10149;DHT22;5115;50.920;6.376;2023-09-08T01:41:05;21.60;99.90
10149;DHT22;5115;50.920;6.376;2023-09-08T01:43:30;21.50;99.90
10149;DHT22;5115;50.920;6.376;2023-09-08T01:45:56;21.50;99.90
10149;DHT22;5115;50.920;6.376;2023-09-08T01:48:22;21.50;99.90
10149;DHT22;5115;50.920;6.376;2023-09-08T01:50:47;21.60;99.90
10149;DHT22;5115;50.920;6.376;2023-09-08T01:53:13;21.60;99.90
10149;DHT22;5115;50.920;6.376;2023-09-08T01:55:38;21.60;99.90
10149;DHT22;5115;50.920;6.376;2023-09-08T01:58:04;21.60;99.90
10149;DHT22;5115;50.920;6.376;2023-09-08T02:00:29;21.60;99.90
10149;DHT22;5115;50.920;6.376;2023-09-08T02:02:55;21.60;99.90
10149;DHT22;5115;50.920;6.376;2023-09-08T02:05:20;21.60;99.90
10149;DHT22;5115;50.920;6.376;2023-09-08T02:07:46;21.60;99.90
10149;DHT22;5115;50.920;6.376;2023-09-08T02:10:11;21.60;99.90
10149;DHT22;5115;50.920;6.376;2023-09-08T02:12:37;21.70;99.90
10149;DHT22;5115;50.920;6.376;2023-09-08T02:15:03;21.70;99.90
10149;DHT22;5115;50.920;6.376;2023-09-08T02:17:30;21.70;99.90
10149;DHT22;5115;50.920;6.376;2023-09-08T02:19:55;21.60;99.90
10149;DHT22;5115;50.920;6.376;2023-09-08T02:22:21;21.60;99.90
10149;DHT22;5115;50.920;6.376;2023-09-08T02:24:46;21.60;99.90
10149;DHT22;5115;50.920;6.376;2023-09-08T02:27:12;21.60;99.90
10149;DHT22;5115;50.920;6.376;2023-09-08T02:29:38;21.50;99.90
10149;DHT22;5115;50.920;6.376;2023-09-08T02:32:03;21.50;99.90
10149;DHT22;5115;50.920;6.376;2023-09-08T02:34:29;21.50;99.90
10149;DHT22;5115;50.920;6.376;2023-09-08T02:36:55;21.50;99.90
10149;DHT22;5115;50.920;6.376;2023-09-08T02:39:20;21.50;99.90
10149;DHT22;5115;50.920;6.376;2023-09-08T02:41:46;21.50;99.90
10149;DHT22;5115;50.920;6.376;2023-09-08T02:44:12;21.50;99.90
10149;DHT22;5115;50.920;6.376;2023-09-08T02:46:37;21.50;99.90
10149;DHT22;5115;50.920;6.376;2023-09-08T02:49:03;21.40;99.90
10149;DHT22;5115;50.920;6.376;2023-09-08T02:51:29;21.40;99.90
10149;DHT22;5115;50.920;6.376;2023-09-08T02:53:54;21.30;99.90
10149;DHT22;5115;50.920;6.376;2023-09-08T02:56:20;21.20;99.90
10149;DHT22;5115;50.920;6.376;2023-09-08T02:58:45;21.10;99.90
10149;DHT22;5115;50.920;6.376;2023-09-08T03:01:16;21.00;99.90
10149;DHT22;5115;50.920;6.376;2023-09-08T03:03:44;20.90;99.90
10149;DHT22;5115;50.920;6.376;2023-09-08T03:06:10;20.80;99.90
10149;DHT22;5115;50.920;6.376;2023-09-08T03:08:36;20.70;99.90
10149;DHT22;5115;50.920;6.376;2023-09-08T03:11:03;20.60;99.90
10149;DHT22;5115;50.920;6.376;2023-09-08T03:13:28;20.60;99.90
10149;DHT22;5115;50.920;6.376;2023-09-08T03:15:55;20.50;99.90
10149;DHT22;5115;50.920;6.376;2023-09-08T03:18:21;20.40;99.90
10149;DHT22;5115;50.920;6.376;2023-09-08T03:20:50;20.40;99.90
10149;DHT22;5115;50.920;6.376;2023-09-08T03:23:16;20.40;99.90
10149;DHT22;5115;50.920;6.376;2023-09-08T03:25:43;20.30;99.90
10149;DHT22;5115;50.920;6.376;2023-09-08T03:28:08;20.20;99.90
10149;DHT22;5115;50.920;6.376;2023-09-08T03:30:34;20.30;99.90
10149;DHT22;5115;50.920;6.376;2023-09-08T03:32:59;20.30;99.90
10149;DHT22;5115;50.920;6.376;2023-09-08T03:35:25;20.30;99.90
10149;DHT22;5115;50.920;6.376;2023-09-08T03:37:50;20.10;99.90
10149;DHT22;5115;50.920;6.376;2023-09-08T03:40:22;20.10;99.90
10149;DHT22;5115;50.920;6.376;2023-09-08T03:42:47;20.10;99.90
10149;DHT22;5115;50.920;6.376;2023-09-08T03:45:13;20.10;99.90
10149;DHT22;5115;50.920;6.376;2023-09-08T03:47:38;20.10;99.90
10149;DHT22;5115;50.920;6.376;2023-09-08T03:50:04;20.10;99.90
10149;DHT22;5115;50.920;6.376;2023-09-08T03:52:31;20.00;99.90
10149;DHT22;5115;50.920;6.376;2023-09-08T03:54:57;20.00;99.90
10149;DHT22;5115;50.920;6.376;2023-09-08T03:57:22;19.90;99.90
10149;DHT22;5115;50.920;6.376;2023-09-08T03:59:48;19.90;99.90
10149;DHT22;5115;50.920;6.376;2023-09-08T04:02:13;19.90;99.90
10149;DHT22;5115;50.920;6.376;2023-09-08T04:04:39;19.90;99.90
10149;DHT22;5115;50.920;6.376;2023-09-08T04:07:04;19.90;99.90
10149;DHT22;5115;50.920;6.376;2023-09-08T04:09:30;19.80;99.90
10149;DHT22;5115;50.920;6.376;2023-09-08T04:11:57;19.20;99.90
10149;DHT22;5115;50.920;6.376;2023-09-08T04:14:22;19.70;99.90
10149;DHT22;5115;50.920;6.376;2023-09-08T04:16:53;19.70;99.90
10149;DHT22;5115;50.920;6.376;2023-09-08T04:19:18;19.70;99.90
10149;DHT22;5115;50.920;6.376;2023-09-08T04:21:44;19.70;99.90
10149;DHT22;5115;50.920;6.376;2023-09-08T04:24:09;19.70;99.90
10149;DHT22;5115;50.920;6.376;2023-09-08T04:26:36;19.70;99.90
10149;DHT22;5115;50.920;6.376;2023-09-08T04:29:02;19.70;99.90
10149;DHT22;5115;50.920;6.376;2023-09-08T04:31:27;19.70;99.90
10149;DHT22;5115;50.920;6.376;2023-09-08T04:33:53;19.70;99.90
10149;DHT22;5115;50.920;6.376;2023-09-08T04:36:19;19.70;99.90
10149;DHT22;5115;50.920;6.376;2023-09-08T04:38:45;19.60;99.90
10149;DHT22;5115;50.920;6.376;2023-09-08T04:41:10;19.70;99.90
10149;DHT22;5115;50.920;6.376;2023-09-08T04:43:36;19.70;99.90
10149;DHT22;5115;50.920;6.376;2023-09-08T04:46:01;19.70;99.90
10149;DHT22;5115;50.920;6.376;2023-09-08T04:48:29;19.70;99.90
10149;DHT22;5115;50.920;6.376;2023-09-08T04:50:54;19.70;99.90
10149;DHT22;5115;50.920;6.376;2023-09-08T04:53:20;19.60;99.90
10149;DHT22;5115;50.920;6.376;2023-09-08T04:55:45;19.60;99.90
10149;DHT22;5115;50.920;6.376;2023-09-08T04:58:11;19.60;99.90
10149;DHT22;5115;50.920;6.376;2023-09-08T05:00:38;19.60;99.90
10149;DHT22;5115;50.920;6.376;2023-09-08T05:03:04;19.60;99.90
10149;DHT22;5115;50.920;6.376;2023-09-08T05:05:29;19.60;99.90
10149;DHT22;5115;50.920;6.376;2023-09-08T05:07:55;19.70;99.90
10149;DHT22;5115;50.920;6.376;2023-09-08T05:10:25;19.70;99.90
10149;DHT22;5115;50.920;6.376;2023-09-08T05:12:51;19.70;99.90
10149;DHT22;5115;50.920;6.376;2023-09-08T05:15:17;19.70;99.90
10149;DHT22;5115;50.920;6.376;2023-09-08T05:17:43;19.80;99.90
10149;DHT22;5115;50.920;6.376;2023-09-08T05:20:09;19.90;99.90
10149;DHT22;5115;50.920;6.376;2023-09-08T05:22:35;19.90;99.90
10149;DHT22;5115;50.920;6.376;2023-09-08T05:25:02;19.90;99.90
10149;DHT22;5115;50.920;6.376;2023-09-08T05:27:27;19.90;99.90
10149;DHT22;5115;50.920;6.376;2023-09-08T05:29:53;19.90;99.90
10149;DHT22;5115;50.920;6.376;2023-09-08T05:32:18;19.90;99.90
10149;DHT22;5115;50.920;6.376;2023-09-08T05:34:44;20.00;99.90
10149;DHT22;5115;50.920;6.376;2023-09-08T05:37:09;20.00;99.90
10149;DHT22;5115;50.920;6.376;2023-09-08T05:39:35;20.10;99.90
10149;DHT22;5115;50.920;6.376;2023-09-08T05:42:01;20.10;99.90
10149;DHT22;5115;50.920;6.376;2023-09-08T05:44:26;20.20;99.90
10149;DHT22;5115;50.920;6.376;2023-09-08T05:46:52;20.30;99.90
10149;DHT22;5115;50.920;6.376;2023-09-08T05:49:17;20.40;99.90
10149;DHT22;5115;50.920;6.376;2023-09-08T05:51:46;20.40;99.90
10149;DHT22;5115;50.920;6.376;2023-09-08T05:54:11;20.50;99.90
10149;DHT22;5115;50.920;6.376;2023-09-08T05:56:38;20.60;99.90
10149;DHT22;5115;50.920;6.376;2023-09-08T05:59:04;20.70;99.90
10149;DHT22;5115;50.920;6.376;2023-09-08T06:01:31;21.00;99.90
10149;DHT22;5115;50.920;6.376;2023-09-08T06:03:56;21.00;99.90
10149;DHT22;5115;50.920;6.376;2023-09-08T06:06:22;21.30;99.90
10149;DHT22;5115;50.920;6.376;2023-09-08T06:08:48;21.50;99.90
10149;DHT22;5115;50.920;6.376;2023-09-08T06:11:14;21.90;99.90
10149;DHT22;5115;50.920;6.376;2023-09-08T06:13:39;22.20;99.90
10149;DHT22;5115;50.920;6.376;2023-09-08T06:16:05;22.60;99.90
10149;DHT22;5115;50.920;6.376;2023-09-08T06:18:31;22.80;99.90
10149;DHT22;5115;50.920;6.376;2023-09-08T06:20:57;23.00;99.90
10149;DHT22;5115;50.920;6.376;2023-09-08T06:23:22;23.30;99.90
10149;DHT22;5115;50.920;6.376;2023-09-08T06:25:49;23.60;99.90
10149;DHT22;5115;50.920;6.376;2023-09-08T06:28:14;23.90;99.90
10149;DHT22;5115;50.920;6.376;2023-09-08T06:30:40;24.20;99.90
10149;DHT22;5115;50.920;6.376;2023-09-08T06:33:08;24.50;99.90
10149;DHT22;5115;50.920;6.376;2023-09-08T06:35:33;24.70;99.90
10149;DHT22;5115;50.920;6.376;2023-09-08T06:37:59;24.70;99.90
10149;DHT22;5115;50.920;6.376;2023-09-08T06:40:25;24.60;99.90
10149;DHT22;5115;50.920;6.376;2023-09-08T06:42:50;24.80;99.90
10149;DHT22;5115;50.920;6.376;2023-09-08T06:45:16;24.70;99.90
10149;DHT22;5115;50.920;6.376;2023-09-08T06:47:43;24.80;99.90
10149;DHT22;5115;50.920;6.376;2023-09-08T06:50:09;25.00;99.90
10149;DHT22;5115;50.920;6.376;2023-09-08T06:52:35;25.00;99.90
10149;DHT22;5115;50.920;6.376;2023-09-08T06:55:01;25.40;99.90
10149;DHT22;5115;50.920;6.376;2023-09-08T06:57:26;26.00;99.90
10149;DHT22;5115;50.920;6.376;2023-09-08T06:59:52;26.40;99.90
10149;DHT22;5115;50.920;6.376;2023-09-08T07:02:17;26.90;99.90
10149;DHT22;5115;50.920;6.376;2023-09-08T07:04:43;27.40;99.90
10149;DHT22;5115;50.920;6.376;2023-09-08T07:07:08;27.90;99.90
10149;DHT22;5115;50.920;6.376;2023-09-08T07:09:35;28.10;99.90
10149;DHT22;5115;50.920;6.376;2023-09-08T07:12:01;27.80;99.90
10149;DHT22;5115;50.920;6.376;2023-09-08T07:14:26;27.50;99.90
10149;DHT22;5115;50.920;6.376;2023-09-08T07:16:52;27.80;99.90
10149;DHT22;5115;50.920;6.376;2023-09-08T07:19:17;28.00;99.90
10149;DHT22;5115;50.920;6.376;2023-09-08T07:21:43;28.90;99.90
10149;DHT22;5115;50.920;6.376;2023-09-08T07:24:08;29.60;99.90
10149;DHT22;5115;50.920;6.376;2023-09-08T07:26:34;29.50;99.90
10149;DHT22;5115;50.920;6.376;2023-09-08T07:29:00;30.00;99.90
10149;DHT22;5115;50.920;6.376;2023-09-08T07:31:25;30.30;99.90
10149;DHT22;5115;50.920;6.376;2023-09-08T07:33:51;30.80;99.90
10149;DHT22;5115;50.920;6.376;2023-09-08T07:36:16;30.90;99.90
10149;DHT22;5115;50.920;6.376;2023-09-08T07:38:42;30.90;99.90
10149;DHT22;5115;50.920;6.376;2023-09-08T07:41:07;31.10;99.90
10149;DHT22;5115;50.920;6.376;2023-09-08T07:43:33;31.80;99.90
10149;DHT22;5115;50.920;6.376;2023-09-08T07:45:59;32.00;99.90
10149;DHT22;5115;50.920;6.376;2023-09-08T07:48:24;32.60;99.90
10149;DHT22;5115;50.920;6.376;2023-09-08T07:50:50;32.80;99.90
10149;DHT22;5115;50.920;6.376;2023-09-08T07:53:15;33.60;99.90
10149;DHT22;5115;50.920;6.376;2023-09-08T07:55:41;33.90;99.90
10149;DHT22;5115;50.920;6.376;2023-09-08T07:58:08;34.60;99.90
10149;DHT22;5115;50.920;6.376;2023-09-08T08:00:33;35.20;99.40
10149;DHT22;5115;50.920;6.376;2023-09-08T08:02:59;35.40;98.30
10149;DHT22;5115;50.920;6.376;2023-09-08T08:05:25;36.00;98.10
10149;DHT22;5115;50.920;6.376;2023-09-08T08:07:51;36.40;96.70
10149;DHT22;5115;50.920;6.376;2023-09-08T08:10:17;35.50;97.20
10149;DHT22;5115;50.920;6.376;2023-09-08T08:12:43;35.10;96.90
10149;DHT22;5115;50.920;6.376;2023-09-08T08:15:09;34.80;97.10
10149;DHT22;5115;50.920;6.376;2023-09-08T08:17:36;35.40;97.00
10149;DHT22;5115;50.920;6.376;2023-09-08T08:20:04;35.10;96.90
10149;DHT22;5115;50.920;6.376;2023-09-08T08:22:34;35.80;96.80
10149;DHT22;5115;50.920;6.376;2023-09-08T08:25:00;36.10;96.90
10149;DHT22;5115;50.920;6.376;2023-09-08T08:27:26;36.10;96.20
10149;DHT22;5115;50.920;6.376;2023-09-08T08:29:51;36.20;96.30
10149;DHT22;5115;50.920;6.376;2023-09-08T08:32:17;36.20;96.20
10149;DHT22;5115;50.920;6.376;2023-09-08T08:34:43;36.10;95.60
10149;DHT22;5115;50.920;6.376;2023-09-08T08:37:10;35.80;96.10
10149;DHT22;5115;50.920;6.376;2023-09-08T08:39:36;36.10;96.30
10149;DHT22;5115;50.920;6.376;2023-09-08T08:42:11;36.40;96.10
10149;DHT22;5115;50.920;6.376;2023-09-08T08:44:40;36.80;95.60
10149;DHT22;5115;50.920;6.376;2023-09-08T08:47:07;36.60;95.80
10149;DHT22;5115;50.920;6.376;2023-09-08T08:49:33;36.70;96.00
10149;DHT22;5115;50.920;6.376;2023-09-08T08:52:00;37.20;95.80
10149;DHT22;5115;50.920;6.376;2023-09-08T08:54:29;37.80;96.20
10149;DHT22;5115;50.920;6.376;2023-09-08T08:56:55;37.80;94.50
10149;DHT22;5115;50.920;6.376;2023-09-08T08:59:21;38.20;94.20
10149;DHT22;5115;50.920;6.376;2023-09-08T09:01:48;37.20;94.80
10149;DHT22;5115;50.920;6.376;2023-09-08T09:04:16;37.20;94.90
10149;DHT22;5115;50.920;6.376;2023-09-08T09:06:42;37.20;94.40
10149;DHT22;5115;50.920;6.376;2023-09-08T09:09:08;36.90;95.30
10149;DHT22;5115;50.920;6.376;2023-09-08T09:11:36;36.80;95.20
10149;DHT22;5115;50.920;6.376;2023-09-08T09:14:01;36.90;95.90
10149;DHT22;5115;50.920;6.376;2023-09-08T09:16:27;36.80;95.20
10149;DHT22;5115;50.920;6.376;2023-09-08T09:18:58;36.30;96.50
10149;DHT22;5115;50.920;6.376;2023-09-08T09:21:44;36.00;96.30
10149;DHT22;5115;50.920;6.376;2023-09-08T09:24:34;35.50;97.20
10149;DHT22;5115;50.920;6.376;2023-09-08T09:27:03;34.50;97.80
10149;DHT22;5115;50.920;6.376;2023-09-08T09:29:31;33.80;98.50
10149;DHT22;5115;50.920;6.376;2023-09-08T09:32:04;33.60;99.50
10149;DHT22;5115;50.920;6.376;2023-09-08T09:34:31;34.10;99.90
10149;DHT22;5115;50.920;6.376;2023-09-08T09:36:56;34.20;99.90
10149;DHT22;5115;50.920;6.376;2023-09-08T09:39:23;34.50;99.40
10149;DHT22;5115;50.920;6.376;2023-09-08T09:41:53;34.90;99.90
10149;DHT22;5115;50.920;6.376;2023-09-08T09:44:19;35.00;98.50
10149;DHT22;5115;50.920;6.376;2023-09-08T09:46:46;34.60;99.10
10149;DHT22;5115;50.920;6.376;2023-09-08T09:49:13;34.90;99.70
10149;DHT22;5115;50.920;6.376;2023-09-08T09:51:48;35.40;99.30
10149;DHT22;5115;50.920;6.376;2023-09-08T09:54:15;34.90;99.20
10149;DHT22;5115;50.920;6.376;2023-09-08T09:56:41;34.90;99.10
10149;DHT22;5115;50.920;6.376;2023-09-08T09:59:08;34.90;99.40
10149;DHT22;5115;50.920;6.376;2023-09-08T10:01:35;35.20;99.60
10149;DHT22;5115;50.920;6.376;2023-09-08T10:04:01;35.40;98.90
10149;DHT22;5115;50.920;6.376;2023-09-08T10:06:31;35.40;98.60
10149;DHT22;5115;50.920;6.376;2023-09-08T10:08:59;35.20;99.10
10149;DHT22;5115;50.920;6.376;2023-09-08T10:11:34;34.90;99.00
10149;DHT22;5115;50.920;6.376;2023-09-08T10:14:00;35.30;98.60
10149;DHT22;5115;50.920;6.376;2023-09-08T10:16:27;35.10;99.80
10149;DHT22;5115;50.920;6.376;2023-09-08T10:18:55;35.50;99.90
10149;DHT22;5115;50.920;6.376;2023-09-08T10:21:26;35.40;99.10
10149;DHT22;5115;50.920;6.376;2023-09-08T10:24:04;35.20;99.90
10149;DHT22;5115;50.920;6.376;2023-09-08T10:26:34;35.10;99.90
10149;DHT22;5115;50.920;6.376;2023-09-08T10:29:01;35.50;99.20
10149;DHT22;5115;50.920;6.376;2023-09-08T10:31:28;35.70;99.40
10149;DHT22;5115;50.920;6.376;2023-09-08T10:33:57;35.40;99.90
10149;DHT22;5115;50.920;6.376;2023-09-08T10:36:24;35.60;99.60
10149;DHT22;5115;50.920;6.376;2023-09-08T10:38:50;36.10;99.40
10149;DHT22;5115;50.920;6.376;2023-09-08T10:43:45;36.40;99.10
10149;DHT22;5115;50.920;6.376;2023-09-08T10:46:21;36.30;99.50
10149;DHT22;5115;50.920;6.376;2023-09-08T10:48:48;36.50;98.10
10149;DHT22;5115;50.920;6.376;2023-09-08T10:51:14;36.10;99.30
10149;DHT22;5115;50.920;6.376;2023-09-08T10:53:40;35.90;97.80
10149;DHT22;5115;50.920;6.376;2023-09-08T10:56:06;35.90;97.80
10149;DHT22;5115;50.920;6.376;2023-09-08T10:58:33;36.00;98.10
10149;DHT22;5115;50.920;6.376;2023-09-08T11:01:00;36.00;98.30
10149;DHT22;5115;50.920;6.376;2023-09-08T11:03:47;35.80;98.30
10149;DHT22;5115;50.920;6.376;2023-09-08T11:06:18;35.90;97.90
10149;DHT22;5115;50.920;6.376;2023-09-08T11:08:45;35.80;97.30
10149;DHT22;5115;50.920;6.376;2023-09-08T11:11:13;35.70;97.30
10149;DHT22;5115;50.920;6.376;2023-09-08T11:13:39;35.70;97.20
10149;DHT22;5115;50.920;6.376;2023-09-08T11:16:11;36.00;97.30
10149;DHT22;5115;50.920;6.376;2023-09-08T11:18:36;35.80;97.10
10149;DHT22;5115;50.920;6.376;2023-09-08T11:21:06;35.30;97.10
10149;DHT22;5115;50.920;6.376;2023-09-08T11:23:33;35.20;97.70
10149;DHT22;5115;50.920;6.376;2023-09-08T11:25:59;34.90;97.20
10149;DHT22;5115;50.920;6.376;2023-09-08T11:28:26;34.80;97.40
10149;DHT22;5115;50.920;6.376;2023-09-08T11:30:54;34.90;97.60
10149;DHT22;5115;50.920;6.376;2023-09-08T11:33:22;35.10;97.80
10149;DHT22;5115;50.920;6.376;2023-09-08T11:35:51;35.00;97.30
10149;DHT22;5115;50.920;6.376;2023-09-08T11:38:19;34.70;97.80
10149;DHT22;5115;50.920;6.376;2023-09-08T11:40:44;34.70;98.20
10149;DHT22;5115;50.920;6.376;2023-09-08T11:43:11;34.50;98.30
10149;DHT22;5115;50.920;6.376;2023-09-08T11:45:37;34.20;98.90
10149;DHT22;5115;50.920;6.376;2023-09-08T11:48:06;34.00;98.60
10149;DHT22;5115;50.920;6.376;2023-09-08T11:50:31;34.00;99.90
10149;DHT22;5115;50.920;6.376;2023-09-08T11:52:57;34.00;99.60
10149;DHT22;5115;50.920;6.376;2023-09-08T11:55:28;34.00;99.50
10149;DHT22;5115;50.920;6.376;2023-09-08T11:57:54;33.90;99.90
10149;DHT22;5115;50.920;6.376;2023-09-08T12:00:23;33.80;99.90
10149;DHT22;5115;50.920;6.376;2023-09-08T12:02:49;33.80;98.40
10149;DHT22;5115;50.920;6.376;2023-09-08T12:05:26;33.70;98.50
10149;DHT22;5115;50.920;6.376;2023-09-08T12:07:53;33.70;99.20
10149;DHT22;5115;50.920;6.376;2023-09-08T12:10:19;33.70;99.40
10149;DHT22;5115;50.920;6.376;2023-09-08T12:12:47;33.60;98.70
10149;DHT22;5115;50.920;6.376;2023-09-08T12:17:55;33.00;99.90
10149;DHT22;5115;50.920;6.376;2023-09-08T12:20:20;32.80;99.90
10149;DHT22;5115;50.920;6.376;2023-09-08T12:22:50;32.80;99.90
10149;DHT22;5115;50.920;6.376;2023-09-08T12:25:16;32.90;99.90
10149;DHT22;5115;50.920;6.376;2023-09-08T12:27:42;32.80;99.90
10149;DHT22;5115;50.920;6.376;2023-09-08T12:30:08;32.80;99.40
10149;DHT22;5115;50.920;6.376;2023-09-08T12:32:35;32.80;99.90
10149;DHT22;5115;50.920;6.376;2023-09-08T12:35:03;32.70;99.90
10149;DHT22;5115;50.920;6.376;2023-09-08T12:37:29;32.60;99.90
10149;DHT22;5115;50.920;6.376;2023-09-08T12:39:56;32.50;99.90
10149;DHT22;5115;50.920;6.376;2023-09-08T12:42:23;32.60;99.90
10149;DHT22;5115;50.920;6.376;2023-09-08T12:44:54;32.50;99.70
10149;DHT22;5115;50.920;6.376;2023-09-08T12:47:19;32.10;99.70
10149;DHT22;5115;50.920;6.376;2023-09-08T12:49:45;31.90;99.90
10149;DHT22;5115;50.920;6.376;2023-09-08T12:52:10;31.90;99.90
10149;DHT22;5115;50.920;6.376;2023-09-08T12:54:36;31.90;99.90
10149;DHT22;5115;50.920;6.376;2023-09-08T12:57:02;31.80;99.90
10149;DHT22;5115;50.920;6.376;2023-09-08T12:59:28;31.90;99.90
10149;DHT22;5115;50.920;6.376;2023-09-08T13:01:54;31.90;99.90
10149;DHT22;5115;50.920;6.376;2023-09-08T13:04:20;31.90;99.90
10149;DHT22;5115;50.920;6.376;2023-09-08T13:06:45;32.00;99.90
10149;DHT22;5115;50.920;6.376;2023-09-08T13:09:11;32.00;99.90
10149;DHT22;5115;50.920;6.376;2023-09-08T13:11:37;31.90;99.90
10149;DHT22;5115;50.920;6.376;2023-09-08T13:14:02;31.80;99.90
10149;DHT22;5115;50.920;6.376;2023-09-08T13:16:28;32.00;99.90
10149;DHT22;5115;50.920;6.376;2023-09-08T13:18:54;32.00;99.90
10149;DHT22;5115;50.920;6.376;2023-09-08T13:21:20;31.90;99.90
10149;DHT22;5115;50.920;6.376;2023-09-08T13:23:46;31.90;99.90
10149;DHT22;5115;50.920;6.376;2023-09-08T13:26:11;31.90;99.90
10149;DHT22;5115;50.920;6.376;2023-09-08T13:28:37;31.80;99.90
10149;DHT22;5115;50.920;6.376;2023-09-08T13:31:02;31.90;99.90
10149;DHT22;5115;50.920;6.376;2023-09-08T13:33:28;31.80;99.90
10149;DHT22;5115;50.920;6.376;2023-09-08T13:35:54;31.80;99.90
10149;DHT22;5115;50.920;6.376;2023-09-08T13:38:20;31.70;99.90
10149;DHT22;5115;50.920;6.376;2023-09-08T13:40:45;31.60;99.90
10149;DHT22;5115;50.920;6.376;2023-09-08T13:43:11;31.60;99.90
10149;DHT22;5115;50.920;6.376;2023-09-08T13:45:36;31.70;99.90
10149;DHT22;5115;50.920;6.376;2023-09-08T13:48:02;31.60;99.90
10149;DHT22;5115;50.920;6.376;2023-09-08T13:50:29;31.70;99.90
10149;DHT22;5115;50.920;6.376;2023-09-08T13:52:55;31.70;99.90
10149;DHT22;5115;50.920;6.376;2023-09-08T13:55:20;31.80;99.90
10149;DHT22;5115;50.920;6.376;2023-09-08T13:57:49;31.60;99.90
10149;DHT22;5115;50.920;6.376;2023-09-08T14:00:16;31.50;99.90
10149;DHT22;5115;50.920;6.376;2023-09-08T14:02:41;31.50;99.90
10149;DHT22;5115;50.920;6.376;2023-09-08T14:05:07;31.40;99.90
10149;DHT22;5115;50.920;6.376;2023-09-08T14:07:32;31.40;99.90
10149;DHT22;5115;50.920;6.376;2023-09-08T14:09:58;31.30;99.90
10149;DHT22;5115;50.920;6.376;2023-09-08T14:12:24;31.20;99.90
10149;DHT22;5115;50.920;6.376;2023-09-08T14:14:49;31.20;99.90
10149;DHT22;5115;50.920;6.376;2023-09-08T14:17:15;31.10;99.90
10149;DHT22;5115;50.920;6.376;2023-09-08T14:19:40;31.00;99.90
10149;DHT22;5115;50.920;6.376;2023-09-08T14:22:06;31.20;99.90
10149;DHT22;5115;50.920;6.376;2023-09-08T14:24:32;31.20;99.90
10149;DHT22;5115;50.920;6.376;2023-09-08T14:26:58;31.30;99.90
10149;DHT22;5115;50.920;6.376;2023-09-08T14:29:23;31.40;99.90
10149;DHT22;5115;50.920;6.376;2023-09-08T14:31:49;31.30;99.90
10149;DHT22;5115;50.920;6.376;2023-09-08T14:34:15;31.40;99.90
10149;DHT22;5115;50.920;6.376;2023-09-08T14:36:40;31.20;99.90
10149;DHT22;5115;50.920;6.376;2023-09-08T14:39:06;31.20;99.90
10149;DHT22;5115;50.920;6.376;2023-09-08T14:41:31;31.20;99.90
10149;DHT22;5115;50.920;6.376;2023-09-08T14:43:57;31.20;99.90
10149;DHT22;5115;50.920;6.376;2023-09-08T14:46:22;31.20;99.90
10149;DHT22;5115;50.920;6.376;2023-09-08T14:48:48;31.20;99.90
10149;DHT22;5115;50.920;6.376;2023-09-08T14:51:14;31.30;99.90
10149;DHT22;5115;50.920;6.376;2023-09-08T14:53:39;31.30;99.90
10149;DHT22;5115;50.920;6.376;2023-09-08T14:56:05;31.20;99.90
10149;DHT22;5115;50.920;6.376;2023-09-08T14:58:30;31.10;99.90
10149;DHT22;5115;50.920;6.376;2023-09-08T15:01:03;31.20;99.90
10149;DHT22;5115;50.920;6.376;2023-09-08T15:03:34;31.20;99.90
10149;DHT22;5115;50.920;6.376;2023-09-08T15:06:00;31.10;99.90
10149;DHT22;5115;50.920;6.376;2023-09-08T15:08:26;31.00;99.90
10149;DHT22;5115;50.920;6.376;2023-09-08T15:10:52;31.00;99.90
10149;DHT22;5115;50.920;6.376;2023-09-08T15:13:17;31.10;99.90
10149;DHT22;5115;50.920;6.376;2023-09-08T15:15:43;31.00;99.90
10149;DHT22;5115;50.920;6.376;2023-09-08T15:18:08;31.00;99.90
10149;DHT22;5115;50.920;6.376;2023-09-08T15:20:34;30.90;99.90
10149;DHT22;5115;50.920;6.376;2023-09-08T15:23:00;30.90;99.90
10149;DHT22;5115;50.920;6.376;2023-09-08T15:25:25;31.00;99.90
10149;DHT22;5115;50.920;6.376;2023-09-08T15:27:51;31.10;99.90
10149;DHT22;5115;50.920;6.376;2023-09-08T15:30:18;31.00;99.90
10149;DHT22;5115;50.920;6.376;2023-09-08T15:32:43;30.90;99.90
10149;DHT22;5115;50.920;6.376;2023-09-08T15:35:10;30.90;99.90
10149;DHT22;5115;50.920;6.376;2023-09-08T15:37:36;31.00;99.90
10149;DHT22;5115;50.920;6.376;2023-09-08T15:40:02;31.00;99.90
10149;DHT22;5115;50.920;6.376;2023-09-08T15:42:29;31.10;99.90
10149;DHT22;5115;50.920;6.376;2023-09-08T15:44:55;31.10;99.90